sensor_id;sensor_type;location;lat;lon;timestamp;P1;durP1;ratioP1;P2;durP2;ratioP2
37288;SDS011;23174;49.462;11.000;2022-08-01T00:00:47;2.85;;;2.63;;
37288;SDS011;23174;49.462;11.000;2022-08-01T00:02:48;3.08;;;2.40;;
37288;SDS011;23174;49.462;11.000;2022-08-01T00:04:49;7.47;;;3.40;;
37288;SDS011;23174;49.462;11.000;2022-08-01T00:06:49;2.85;;;2.40;;
37288;SDS011;23174;49.462;11.000;2022-08-01T00:08:50;4.45;;;2.70;;
37288;SDS011;23174;49.462;11.000;2022-08-01T00:10:50;2.70;;;2.47;;
37288;SDS011;23174;49.462;11.000;2022-08-01T00:12:51;2.60;;;2.40;;
37288;SDS011;23174;49.462;11.000;2022-08-01T00:14:51;2.78;;;2.55;;
37288;SDS011;23174;49.462;11.000;2022-08-01T00:16:52;3.95;;;2.40;;
37288;SDS011;23174;49.462;11.000;2022-08-01T00:18:53;3.83;;;2.25;;
37288;SDS011;23174;49.462;11.000;2022-08-01T00:20:53;3.58;;;2.72;;
37288;SDS011;23174;49.462;11.000;2022-08-01T00:22:54;4.93;;;2.55;;
37288;SDS011;23174;49.462;11.000;2022-08-01T00:24:55;4.05;;;2.55;;
37288;SDS011;23174;49.462;11.000;2022-08-01T00:26:55;2.78;;;2.50;;
37288;SDS011;23174;49.462;11.000;2022-08-01T00:28:56;3.20;;;3.00;;
37288;SDS011;23174;49.462;11.000;2022-08-01T00:30:56;2.47;;;2.28;;
37288;SDS011;23174;49.462;11.000;2022-08-01T00:32:57;2.60;;;2.40;;
37288;SDS011;23174;49.462;11.000;2022-08-01T00:34:57;2.88;;;2.28;;
37288;SDS011;23174;49.462;11.000;2022-08-01T00:36:58;2.70;;;2.50;;
37288;SDS011;23174;49.462;11.000;2022-08-01T00:38:59;4.30;;;2.63;;
37288;SDS011;23174;49.462;11.000;2022-08-01T00:40:59;2.47;;;2.28;;
37288;SDS011;23174;49.462;11.000;2022-08-01T00:43:00;3.35;;;2.40;;
37288;SDS011;23174;49.462;11.000;2022-08-01T00:45:00;2.67;;;2.53;;
37288;SDS011;23174;49.462;11.000;2022-08-01T00:47:01;3.33;;;2.60;;
37288;SDS011;23174;49.462;11.000;2022-08-01T00:49:03;2.85;;;2.40;;
37288;SDS011;23174;49.462;11.000;2022-08-01T00:51:03;4.05;;;2.10;;
37288;SDS011;23174;49.462;11.000;2022-08-01T00:53:05;5.10;;;2.10;;
37288;SDS011;23174;49.462;11.000;2022-08-01T00:55:06;4.57;;;2.40;;
37288;SDS011;23174;49.462;11.000;2022-08-01T00:57:09;3.30;;;2.30;;
37288;SDS011;23174;49.462;11.000;2022-08-01T00:59:11;5.45;;;2.50;;
37288;SDS011;23174;49.462;11.000;2022-08-01T01:01:12;2.28;;;1.98;;
37288;SDS011;23174;49.462;11.000;2022-08-01T01:03:13;2.40;;;2.15;;
37288;SDS011;23174;49.462;11.000;2022-08-01T01:05:13;4.07;;;2.05;;
37288;SDS011;23174;49.462;11.000;2022-08-01T01:07:17;4.70;;;2.35;;
37288;SDS011;23174;49.462;11.000;2022-08-01T01:09:42;2.50;;;2.30;;
37288;SDS011;23174;49.462;11.000;2022-08-01T01:11:49;3.03;;;2.03;;
37288;SDS011;23174;49.462;11.000;2022-08-01T01:14:09;3.50;;;2.10;;
37288;SDS011;23174;49.462;11.000;2022-08-01T01:16:17;3.35;;;2.10;;
37288;SDS011;23174;49.462;11.000;2022-08-01T01:18:22;3.40;;;2.55;;
37288;SDS011;23174;49.462;11.000;2022-08-01T01:20:30;2.50;;;2.30;;
37288;SDS011;23174;49.462;11.000;2022-08-01T01:22:36;3.17;;;2.42;;
37288;SDS011;23174;49.462;11.000;2022-08-01T01:24:57;2.92;;;2.30;;
37288;SDS011;23174;49.462;11.000;2022-08-01T01:29:28;3.00;;;1.83;;
37288;SDS011;23174;49.462;11.000;2022-08-01T01:31:46;2.45;;;2.10;;
37288;SDS011;23174;49.462;11.000;2022-08-01T01:33:51;2.97;;;2.38;;
37288;SDS011;23174;49.462;11.000;2022-08-01T01:35:56;2.00;;;1.80;;
37288;SDS011;23174;49.462;11.000;2022-08-01T01:38:01;2.60;;;1.98;;
37288;SDS011;23174;49.462;11.000;2022-08-01T01:40:06;2.38;;;2.00;;
37288;SDS011;23174;49.462;11.000;2022-08-01T01:42:09;2.20;;;2.00;;
37288;SDS011;23174;49.462;11.000;2022-08-01T01:44:10;2.75;;;2.05;;
37288;SDS011;23174;49.462;11.000;2022-08-01T01:46:12;2.38;;;2.15;;
37288;SDS011;23174;49.462;11.000;2022-08-01T01:48:18;2.30;;;2.20;;
37288;SDS011;23174;49.462;11.000;2022-08-01T01:50:21;3.83;;;1.83;;
37288;SDS011;23174;49.462;11.000;2022-08-01T01:52:23;1.95;;;1.85;;
37288;SDS011;23174;49.462;11.000;2022-08-01T01:54:30;2.17;;;2.03;;
37288;SDS011;23174;49.462;11.000;2022-08-01T01:56:35;2.97;;;1.70;;
37288;SDS011;23174;49.462;11.000;2022-08-01T01:58:49;2.83;;;2.00;;
37288;SDS011;23174;49.462;11.000;2022-08-01T02:00:55;2.00;;;1.90;;
37288;SDS011;23174;49.462;11.000;2022-08-01T02:02:58;2.53;;;2.00;;
37288;SDS011;23174;49.462;11.000;2022-08-01T02:05:00;7.20;;;2.33;;
37288;SDS011;23174;49.462;11.000;2022-08-01T02:07:02;2.00;;;1.80;;
37288;SDS011;23174;49.462;11.000;2022-08-01T02:09:03;1.90;;;1.80;;
37288;SDS011;23174;49.462;11.000;2022-08-01T02:11:05;3.15;;;2.80;;
37288;SDS011;23174;49.462;11.000;2022-08-01T02:13:18;1.92;;;1.80;;
37288;SDS011;23174;49.462;11.000;2022-08-01T02:15:19;2.85;;;1.85;;
37288;SDS011;23174;49.462;11.000;2022-08-01T02:17:21;1.83;;;1.73;;
37288;SDS011;23174;49.462;11.000;2022-08-01T02:19:24;2.78;;;2.10;;
37288;SDS011;23174;49.462;11.000;2022-08-01T02:21:49;3.47;;;2.17;;
37288;SDS011;23174;49.462;11.000;2022-08-01T02:23:55;3.50;;;2.25;;
37288;SDS011;23174;49.462;11.000;2022-08-01T02:26:09;5.78;;;2.58;;
37288;SDS011;23174;49.462;11.000;2022-08-01T02:28:15;3.80;;;2.38;;
37288;SDS011;23174;49.462;11.000;2022-08-01T02:30:19;2.03;;;1.75;;
37288;SDS011;23174;49.462;11.000;2022-08-01T02:32:33;1.90;;;1.80;;
37288;SDS011;23174;49.462;11.000;2022-08-01T02:34:49;2.28;;;1.75;;
37288;SDS011;23174;49.462;11.000;2022-08-01T02:36:52;2.20;;;1.98;;
37288;SDS011;23174;49.462;11.000;2022-08-01T02:38:55;1.70;;;1.60;;
37288;SDS011;23174;49.462;11.000;2022-08-01T02:41:00;2.45;;;1.90;;
37288;SDS011;23174;49.462;11.000;2022-08-01T02:43:08;3.50;;;2.40;;
37288;SDS011;23174;49.462;11.000;2022-08-01T02:45:10;4.32;;;1.98;;
37288;SDS011;23174;49.462;11.000;2022-08-01T02:47:13;2.10;;;1.92;;
37288;SDS011;23174;49.462;11.000;2022-08-01T02:49:17;3.42;;;2.00;;
37288;SDS011;23174;49.462;11.000;2022-08-01T02:51:19;5.03;;;2.20;;
37288;SDS011;23174;49.462;11.000;2022-08-01T02:53:23;3.17;;;2.05;;
37288;SDS011;23174;49.462;11.000;2022-08-01T02:55:25;2.28;;;2.05;;
37288;SDS011;23174;49.462;11.000;2022-08-01T02:57:28;4.20;;;1.98;;
37288;SDS011;23174;49.462;11.000;2022-08-01T02:59:29;2.47;;;1.80;;
37288;SDS011;23174;49.462;11.000;2022-08-01T03:01:32;2.40;;;2.05;;
37288;SDS011;23174;49.462;11.000;2022-08-01T03:03:34;1.92;;;1.80;;
37288;SDS011;23174;49.462;11.000;2022-08-01T03:05:37;3.25;;;1.95;;
37288;SDS011;23174;49.462;11.000;2022-08-01T03:07:42;2.00;;;1.90;;
37288;SDS011;23174;49.462;11.000;2022-08-01T03:09:44;2.60;;;2.17;;
37288;SDS011;23174;49.462;11.000;2022-08-01T03:11:46;1.80;;;1.70;;
37288;SDS011;23174;49.462;11.000;2022-08-01T03:13:48;2.17;;;2.00;;
37288;SDS011;23174;49.462;11.000;2022-08-01T03:15:50;2.15;;;1.85;;
37288;SDS011;23174;49.462;11.000;2022-08-01T03:17:53;2.10;;;1.80;;
37288;SDS011;23174;49.462;11.000;2022-08-01T03:19:56;2.70;;;2.05;;
37288;SDS011;23174;49.462;11.000;2022-08-01T03:21:58;1.90;;;1.80;;
37288;SDS011;23174;49.462;11.000;2022-08-01T03:24:03;2.03;;;1.83;;
37288;SDS011;23174;49.462;11.000;2022-08-01T03:26:06;1.85;;;1.75;;
37288;SDS011;23174;49.462;11.000;2022-08-01T03:28:08;2.30;;;2.10;;
37288;SDS011;23174;49.462;11.000;2022-08-01T03:30:12;2.13;;;1.95;;
37288;SDS011;23174;49.462;11.000;2022-08-01T03:32:13;5.03;;;1.98;;
37288;SDS011;23174;49.462;11.000;2022-08-01T03:34:15;1.73;;;1.63;;
37288;SDS011;23174;49.462;11.000;2022-08-01T03:36:16;2.60;;;2.30;;
37288;SDS011;23174;49.462;11.000;2022-08-01T03:38:23;1.90;;;1.80;;
37288;SDS011;23174;49.462;11.000;2022-08-01T03:40:37;1.92;;;1.75;;
37288;SDS011;23174;49.462;11.000;2022-08-01T03:42:44;3.35;;;1.90;;
37288;SDS011;23174;49.462;11.000;2022-08-01T03:44:47;1.92;;;1.83;;
37288;SDS011;23174;49.462;11.000;2022-08-01T03:46:56;2.40;;;2.20;;
37288;SDS011;23174;49.462;11.000;2022-08-01T03:49:01;2.63;;;1.95;;
37288;SDS011;23174;49.462;11.000;2022-08-01T03:51:06;2.42;;;2.10;;
37288;SDS011;23174;49.462;11.000;2022-08-01T03:53:08;2.78;;;1.90;;
37288;SDS011;23174;49.462;11.000;2022-08-01T03:55:11;3.05;;;1.88;;
37288;SDS011;23174;49.462;11.000;2022-08-01T03:57:15;2.50;;;1.92;;
37288;SDS011;23174;49.462;11.000;2022-08-01T03:59:16;3.10;;;1.88;;
37288;SDS011;23174;49.462;11.000;2022-08-01T04:01:19;3.13;;;1.85;;
37288;SDS011;23174;49.462;11.000;2022-08-01T04:03:20;0.85;;;0.85;;
37288;SDS011;23174;49.462;11.000;2022-08-01T04:05:22;1.23;;;1.05;;
37288;SDS011;23174;49.462;11.000;2022-08-01T04:07:25;2.40;;;1.67;;
37288;SDS011;23174;49.462;11.000;2022-08-01T04:09:27;1.30;;;1.02;;
37288;SDS011;23174;49.462;11.000;2022-08-01T04:11:28;0.98;;;0.95;;
37288;SDS011;23174;49.462;11.000;2022-08-01T04:13:29;4.32;;;1.48;;
37288;SDS011;23174;49.462;11.000;2022-08-01T04:15:30;1.98;;;0.80;;
37288;SDS011;23174;49.462;11.000;2022-08-01T04:17:31;1.05;;;1.05;;
37288;SDS011;23174;49.462;11.000;2022-08-01T04:19:32;4.22;;;0.77;;
37288;SDS011;23174;49.462;11.000;2022-08-01T04:21:33;0.35;;;0.35;;
37288;SDS011;23174;49.462;11.000;2022-08-01T04:23:35;0.98;;;0.93;;
37288;SDS011;23174;49.462;11.000;2022-08-01T04:25:37;0.82;;;0.82;;
37288;SDS011;23174;49.462;11.000;2022-08-01T04:27:43;1.45;;;1.13;;
37288;SDS011;23174;49.462;11.000;2022-08-01T04:29:48;0.63;;;0.63;;
37288;SDS011;23174;49.462;11.000;2022-08-01T04:31:51;3.08;;;0.30;;
37288;SDS011;23174;49.462;11.000;2022-08-01T04:33:54;0.80;;;0.80;;
37288;SDS011;23174;49.462;11.000;2022-08-01T04:35:57;0.70;;;0.70;;
37288;SDS011;23174;49.462;11.000;2022-08-01T04:37:59;1.98;;;1.13;;
37288;SDS011;23174;49.462;11.000;2022-08-01T04:40:03;1.27;;;1.15;;
37288;SDS011;23174;49.462;11.000;2022-08-01T04:42:05;1.38;;;1.10;;
37288;SDS011;23174;49.462;11.000;2022-08-01T04:44:07;1.88;;;1.23;;
37288;SDS011;23174;49.462;11.000;2022-08-01T04:46:08;0.47;;;0.40;;
37288;SDS011;23174;49.462;11.000;2022-08-01T04:48:11;1.02;;;0.95;;
37288;SDS011;23174;49.462;11.000;2022-08-01T04:50:15;1.90;;;1.35;;
37288;SDS011;23174;49.462;11.000;2022-08-01T04:52:15;1.02;;;0.95;;
37288;SDS011;23174;49.462;11.000;2022-08-01T04:54:17;1.58;;;1.48;;
37288;SDS011;23174;49.462;11.000;2022-08-01T04:56:19;0.93;;;0.82;;
37288;SDS011;23174;49.462;11.000;2022-08-01T04:58:20;4.03;;;1.27;;
37288;SDS011;23174;49.462;11.000;2022-08-01T05:00:21;0.43;;;0.40;;
37288;SDS011;23174;49.462;11.000;2022-08-01T05:02:21;0.90;;;0.85;;
37288;SDS011;23174;49.462;11.000;2022-08-01T05:04:23;0.63;;;0.63;;
37288;SDS011;23174;49.462;11.000;2022-08-01T05:06:23;0.32;;;0.32;;
37288;SDS011;23174;49.462;11.000;2022-08-01T05:08:24;0.70;;;0.70;;
37288;SDS011;23174;49.462;11.000;2022-08-01T05:10:25;0.93;;;0.90;;
37288;SDS011;23174;49.462;11.000;2022-08-01T05:12:26;0.90;;;0.90;;
37288;SDS011;23174;49.462;11.000;2022-08-01T05:14:27;1.33;;;1.23;;
37288;SDS011;23174;49.462;11.000;2022-08-01T05:16:28;1.73;;;1.05;;
37288;SDS011;23174;49.462;11.000;2022-08-01T05:18:29;1.13;;;1.02;;
37288;SDS011;23174;49.462;11.000;2022-08-01T05:20:29;1.55;;;1.45;;
37288;SDS011;23174;49.462;11.000;2022-08-01T05:22:30;2.78;;;0.80;;
37288;SDS011;23174;49.462;11.000;2022-08-01T05:24:31;1.00;;;1.00;;
37288;SDS011;23174;49.462;11.000;2022-08-01T05:26:32;0.93;;;0.93;;
37288;SDS011;23174;49.462;11.000;2022-08-01T05:28:33;0.95;;;0.95;;
37288;SDS011;23174;49.462;11.000;2022-08-01T05:30:33;1.05;;;1.05;;
37288;SDS011;23174;49.462;11.000;2022-08-01T05:32:34;1.00;;;0.98;;
37288;SDS011;23174;49.462;11.000;2022-08-01T05:34:35;1.02;;;1.02;;
37288;SDS011;23174;49.462;11.000;2022-08-01T05:36:35;1.30;;;1.20;;
37288;SDS011;23174;49.462;11.000;2022-08-01T05:38:37;2.92;;;0.85;;
37288;SDS011;23174;49.462;11.000;2022-08-01T05:40:38;1.08;;;1.08;;
37288;SDS011;23174;49.462;11.000;2022-08-01T05:42:38;1.08;;;1.08;;
37288;SDS011;23174;49.462;11.000;2022-08-01T05:44:39;0.75;;;0.75;;
37288;SDS011;23174;49.462;11.000;2022-08-01T05:46:40;1.60;;;1.10;;
37288;SDS011;23174;49.462;11.000;2022-08-01T05:48:40;2.05;;;1.15;;
37288;SDS011;23174;49.462;11.000;2022-08-01T05:50:41;2.00;;;1.20;;
37288;SDS011;23174;49.462;11.000;2022-08-01T05:52:42;1.00;;;0.90;;
37288;SDS011;23174;49.462;11.000;2022-08-01T05:54:42;4.35;;;1.20;;
37288;SDS011;23174;49.462;11.000;2022-08-01T05:56:43;1.08;;;1.00;;
37288;SDS011;23174;49.462;11.000;2022-08-01T05:58:43;2.50;;;1.10;;
37288;SDS011;23174;49.462;11.000;2022-08-01T06:00:44;0.85;;;0.85;;
37288;SDS011;23174;49.462;11.000;2022-08-01T06:02:45;1.50;;;1.00;;
37288;SDS011;23174;49.462;11.000;2022-08-01T06:04:45;1.00;;;1.00;;
37288;SDS011;23174;49.462;11.000;2022-08-01T06:06:46;0.73;;;0.73;;
37288;SDS011;23174;49.462;11.000;2022-08-01T06:08:47;0.90;;;0.90;;
37288;SDS011;23174;49.462;11.000;2022-08-01T06:10:47;1.67;;;1.00;;
37288;SDS011;23174;49.462;11.000;2022-08-01T06:12:48;2.50;;;0.55;;
37288;SDS011;23174;49.462;11.000;2022-08-01T06:14:52;0.55;;;0.55;;
37288;SDS011;23174;49.462;11.000;2022-08-01T06:17:00;2.55;;;0.95;;
37288;SDS011;23174;49.462;11.000;2022-08-01T06:19:25;0.47;;;0.45;;
37288;SDS011;23174;49.462;11.000;2022-08-01T06:27:56;0.50;;;0.50;;
37288;SDS011;23174;49.462;11.000;2022-08-01T06:30:22;0.43;;;0.30;;
37288;SDS011;23174;49.462;11.000;2022-08-01T06:32:31;2.90;;;0.73;;
37288;SDS011;23174;49.462;11.000;2022-08-01T06:37:59;1.23;;;1.00;;
37288;SDS011;23174;49.462;11.000;2022-08-01T06:40:09;0.10;;;0.10;;
37288;SDS011;23174;49.462;11.000;2022-08-01T06:42:17;0.75;;;0.73;;
37288;SDS011;23174;49.462;11.000;2022-08-01T06:44:43;0.20;;;0.20;;
37288;SDS011;23174;49.462;11.000;2022-08-01T06:46:43;0.10;;;0.10;;
37288;SDS011;23174;49.462;11.000;2022-08-01T06:48:44;0.20;;;0.20;;
37288;SDS011;23174;49.462;11.000;2022-08-01T06:50:45;1.20;;;0.88;;
37288;SDS011;23174;49.462;11.000;2022-08-01T06:52:48;0.73;;;0.73;;
37288;SDS011;23174;49.462;11.000;2022-08-01T06:54:52;0.40;;;0.40;;
37288;SDS011;23174;49.462;11.000;2022-08-01T06:56:53;0.52;;;0.52;;
37288;SDS011;23174;49.462;11.000;2022-08-01T06:59:01;0.43;;;0.43;;
37288;SDS011;23174;49.462;11.000;2022-08-01T07:01:03;0.10;;;0.10;;
37288;SDS011;23174;49.462;11.000;2022-08-01T07:05:51;0.93;;;0.90;;
37288;SDS011;23174;49.462;11.000;2022-08-01T07:08:07;0.65;;;0.65;;
37288;SDS011;23174;49.462;11.000;2022-08-01T07:10:08;0.57;;;0.57;;
37288;SDS011;23174;49.462;11.000;2022-08-01T07:12:09;0.68;;;0.68;;
37288;SDS011;23174;49.462;11.000;2022-08-01T07:14:33;0.22;;;0.22;;
37288;SDS011;23174;49.462;11.000;2022-08-01T07:16:33;22.85;;;2.63;;
37288;SDS011;23174;49.462;11.000;2022-08-01T07:18:34;1.27;;;1.20;;
37288;SDS011;23174;49.462;11.000;2022-08-01T07:20:34;0.35;;;0.35;;
37288;SDS011;23174;49.462;11.000;2022-08-01T07:22:37;0.47;;;0.47;;
37288;SDS011;23174;49.462;11.000;2022-08-01T07:24:40;0.28;;;0.20;;
37288;SDS011;23174;49.462;11.000;2022-08-01T07:26:47;0.90;;;0.90;;
37288;SDS011;23174;49.462;11.000;2022-08-01T07:28:49;1.65;;;0.82;;
37288;SDS011;23174;49.462;11.000;2022-08-01T07:30:50;0.90;;;0.63;;
37288;SDS011;23174;49.462;11.000;2022-08-01T07:32:53;0.30;;;0.30;;
37288;SDS011;23174;49.462;11.000;2022-08-01T07:34:59;0.32;;;0.32;;
37288;SDS011;23174;49.462;11.000;2022-08-01T07:37:45;9.98;;;1.35;;
37288;SDS011;23174;49.462;11.000;2022-08-01T07:39:46;1.20;;;1.05;;
37288;SDS011;23174;49.462;11.000;2022-08-01T07:41:51;1.77;;;1.27;;
37288;SDS011;23174;49.462;11.000;2022-08-01T07:43:52;0.20;;;0.20;;
37288;SDS011;23174;49.462;11.000;2022-08-01T07:46:04;0.43;;;0.43;;
37288;SDS011;23174;49.462;11.000;2022-08-01T07:48:09;1.00;;;0.90;;
37288;SDS011;23174;49.462;11.000;2022-08-01T07:50:12;1.17;;;0.85;;
37288;SDS011;23174;49.462;11.000;2022-08-01T07:52:24;1.50;;;1.05;;
37288;SDS011;23174;49.462;11.000;2022-08-01T07:54:31;0.10;;;0.10;;
37288;SDS011;23174;49.462;11.000;2022-08-01T07:56:36;0.68;;;0.68;;
37288;SDS011;23174;49.462;11.000;2022-08-01T07:58:37;0.40;;;0.40;;
37288;SDS011;23174;49.462;11.000;2022-08-01T08:00:48;0.47;;;0.47;;
37288;SDS011;23174;49.462;11.000;2022-08-01T08:02:49;0.32;;;0.32;;
37288;SDS011;23174;49.462;11.000;2022-08-01T08:04:51;0.80;;;0.80;;
37288;SDS011;23174;49.462;11.000;2022-08-01T08:06:59;0.45;;;0.45;;
37288;SDS011;23174;49.462;11.000;2022-08-01T08:09:00;1.02;;;0.93;;
37288;SDS011;23174;49.462;11.000;2022-08-01T08:11:13;8.57;;;1.08;;
37288;SDS011;23174;49.462;11.000;2022-08-01T08:16:57;0.98;;;0.88;;
37288;SDS011;23174;49.462;11.000;2022-08-01T08:24:43;1.88;;;1.38;;
37288;SDS011;23174;49.462;11.000;2022-08-01T08:36:37;1.17;;;1.17;;
37288;SDS011;23174;49.462;11.000;2022-08-01T08:39:20;2.75;;;1.20;;
37288;SDS011;23174;49.462;11.000;2022-08-01T08:41:22;1.17;;;1.08;;
37288;SDS011;23174;49.462;11.000;2022-08-01T08:43:27;1.17;;;1.00;;
37288;SDS011;23174;49.462;11.000;2022-08-01T08:45:29;2.00;;;1.20;;
37288;SDS011;23174;49.462;11.000;2022-08-01T08:47:35;2.30;;;1.30;;
37288;SDS011;23174;49.462;11.000;2022-08-01T08:49:36;1.27;;;1.17;;
37288;SDS011;23174;49.462;11.000;2022-08-01T08:51:38;2.88;;;1.35;;
37288;SDS011;23174;49.462;11.000;2022-08-01T08:53:42;3.35;;;1.13;;
37288;SDS011;23174;49.462;11.000;2022-08-01T08:55:48;1.05;;;1.05;;
37288;SDS011;23174;49.462;11.000;2022-08-01T08:57:54;1.10;;;1.10;;
37288;SDS011;23174;49.462;11.000;2022-08-01T09:00:00;1.00;;;1.00;;
37288;SDS011;23174;49.462;11.000;2022-08-01T09:02:01;2.13;;;1.08;;
37288;SDS011;23174;49.462;11.000;2022-08-01T09:04:16;1.23;;;1.20;;
37288;SDS011;23174;49.462;11.000;2022-08-01T09:06:17;2.00;;;1.08;;
37288;SDS011;23174;49.462;11.000;2022-08-01T09:08:19;1.13;;;1.02;;
37288;SDS011;23174;49.462;11.000;2022-08-01T09:10:27;0.98;;;0.98;;
37288;SDS011;23174;49.462;11.000;2022-08-01T09:12:31;0.80;;;0.63;;
37288;SDS011;23174;49.462;11.000;2022-08-01T09:14:34;3.38;;;1.20;;
37288;SDS011;23174;49.462;11.000;2022-08-01T09:16:45;2.33;;;0.85;;
37288;SDS011;23174;49.462;11.000;2022-08-01T09:18:45;1.33;;;0.88;;
37288;SDS011;23174;49.462;11.000;2022-08-01T09:20:46;0.43;;;0.43;;
37288;SDS011;23174;49.462;11.000;2022-08-01T09:22:46;4.32;;;1.00;;
37288;SDS011;23174;49.462;11.000;2022-08-01T09:24:59;0.50;;;0.43;;
37288;SDS011;23174;49.462;11.000;2022-08-01T09:27:34;2.65;;;0.90;;
37288;SDS011;23174;49.462;11.000;2022-08-01T09:29:29;0.95;;;0.90;;
37288;SDS011;23174;49.462;11.000;2022-08-01T09:31:41;1.05;;;0.98;;
37288;SDS011;23174;49.462;11.000;2022-08-01T09:33:47;1.35;;;1.00;;
37288;SDS011;23174;49.462;11.000;2022-08-01T09:35:56;2.33;;;1.23;;
37288;SDS011;23174;49.462;11.000;2022-08-01T09:40:16;1.40;;;1.30;;
37288;SDS011;23174;49.462;11.000;2022-08-01T09:42:26;3.75;;;1.00;;
37288;SDS011;23174;49.462;11.000;2022-08-01T09:44:40;1.02;;;0.85;;
37288;SDS011;23174;49.462;11.000;2022-08-01T09:46:52;1.23;;;0.88;;
37288;SDS011;23174;49.462;11.000;2022-08-01T09:48:57;2.03;;;0.90;;
37288;SDS011;23174;49.462;11.000;2022-08-01T09:51:00;1.10;;;1.00;;
37288;SDS011;23174;49.462;11.000;2022-08-01T09:53:00;2.35;;;0.90;;
37288;SDS011;23174;49.462;11.000;2022-08-01T09:55:02;1.58;;;0.98;;
37288;SDS011;23174;49.462;11.000;2022-08-01T09:57:09;3.88;;;1.30;;
37288;SDS011;23174;49.462;11.000;2022-08-01T09:59:11;0.90;;;0.90;;
37288;SDS011;23174;49.462;11.000;2022-08-01T10:01:12;1.73;;;0.75;;
37288;SDS011;23174;49.462;11.000;2022-08-01T10:03:26;4.43;;;1.00;;
37288;SDS011;23174;49.462;11.000;2022-08-01T10:05:30;1.95;;;0.98;;
37288;SDS011;23174;49.462;11.000;2022-08-01T10:07:55;1.63;;;0.98;;
37288;SDS011;23174;49.462;11.000;2022-08-01T10:10:14;0.88;;;0.80;;
37288;SDS011;23174;49.462;11.000;2022-08-01T10:12:17;3.40;;;0.70;;
37288;SDS011;23174;49.462;11.000;2022-08-01T10:14:19;0.80;;;0.70;;
37288;SDS011;23174;49.462;11.000;2022-08-01T10:16:20;2.88;;;1.13;;
37288;SDS011;23174;49.462;11.000;2022-08-01T10:18:21;0.82;;;0.82;;
37288;SDS011;23174;49.462;11.000;2022-08-01T10:20:26;2.65;;;0.63;;
37288;SDS011;23174;49.462;11.000;2022-08-01T10:22:28;0.55;;;0.55;;
37288;SDS011;23174;49.462;11.000;2022-08-01T10:24:31;0.52;;;0.52;;
37288;SDS011;23174;49.462;11.000;2022-08-01T10:26:35;0.52;;;0.52;;
37288;SDS011;23174;49.462;11.000;2022-08-01T10:28:39;0.40;;;0.40;;
37288;SDS011;23174;49.462;11.000;2022-08-01T10:30:44;0.40;;;0.40;;
37288;SDS011;23174;49.462;11.000;2022-08-01T10:32:46;0.68;;;0.50;;
37288;SDS011;23174;49.462;11.000;2022-08-01T10:34:48;1.17;;;0.63;;
37288;SDS011;23174;49.462;11.000;2022-08-01T10:36:49;4.03;;;0.57;;
37288;SDS011;23174;49.462;11.000;2022-08-01T10:38:50;0.70;;;0.70;;
37288;SDS011;23174;49.462;11.000;2022-08-01T10:40:53;1.73;;;1.02;;
37288;SDS011;23174;49.462;11.000;2022-08-01T10:42:56;2.20;;;1.30;;
37288;SDS011;23174;49.462;11.000;2022-08-01T10:44:57;0.93;;;0.70;;
37288;SDS011;23174;49.462;11.000;2022-08-01T10:47:11;1.55;;;0.98;;
37288;SDS011;23174;49.462;11.000;2022-08-01T10:49:18;1.02;;;0.80;;
37288;SDS011;23174;49.462;11.000;2022-08-01T10:51:22;0.85;;;0.85;;
37288;SDS011;23174;49.462;11.000;2022-08-01T10:53:24;2.10;;;0.70;;
37288;SDS011;23174;49.462;11.000;2022-08-01T10:55:27;0.47;;;0.38;;
37288;SDS011;23174;49.462;11.000;2022-08-01T10:59:49;4.18;;;0.80;;
37288;SDS011;23174;49.462;11.000;2022-08-01T11:01:57;1.02;;;0.40;;
37288;SDS011;23174;49.462;11.000;2022-08-01T11:06:03;0.77;;;0.77;;
37288;SDS011;23174;49.462;11.000;2022-08-01T11:08:10;1.95;;;1.00;;
37288;SDS011;23174;49.462;11.000;2022-08-01T11:10:23;1.10;;;0.80;;
37288;SDS011;23174;49.462;11.000;2022-08-01T11:12:40;1.13;;;1.13;;
37288;SDS011;23174;49.462;11.000;2022-08-01T11:15:24;0.63;;;0.63;;
37288;SDS011;23174;49.462;11.000;2022-08-01T11:20:02;1.15;;;0.80;;
37288;SDS011;23174;49.462;11.000;2022-08-01T11:22:06;0.52;;;0.50;;
37288;SDS011;23174;49.462;11.000;2022-08-01T11:24:07;4.28;;;1.55;;
37288;SDS011;23174;49.462;11.000;2022-08-01T11:26:08;0.90;;;0.90;;
37288;SDS011;23174;49.462;11.000;2022-08-01T11:32:24;1.10;;;0.80;;
37288;SDS011;23174;49.462;11.000;2022-08-01T11:37:18;0.68;;;0.68;;
37288;SDS011;23174;49.462;11.000;2022-08-01T11:39:24;0.90;;;0.90;;
37288;SDS011;23174;49.462;11.000;2022-08-01T11:41:25;2.53;;;0.90;;
37288;SDS011;23174;49.462;11.000;2022-08-01T11:43:30;0.82;;;0.82;;
37288;SDS011;23174;49.462;11.000;2022-08-01T11:45:47;1.27;;;1.02;;
37288;SDS011;23174;49.462;11.000;2022-08-01T11:47:49;0.80;;;0.60;;
37288;SDS011;23174;49.462;11.000;2022-08-01T11:49:51;0.80;;;0.80;;
37288;SDS011;23174;49.462;11.000;2022-08-01T11:54:01;0.70;;;0.70;;
37288;SDS011;23174;49.462;11.000;2022-08-01T11:56:02;0.90;;;0.85;;
37288;SDS011;23174;49.462;11.000;2022-08-01T11:58:06;2.53;;;1.08;;
37288;SDS011;23174;49.462;11.000;2022-08-01T12:00:11;1.00;;;1.00;;
37288;SDS011;23174;49.462;11.000;2022-08-01T12:02:15;2.30;;;1.20;;
37288;SDS011;23174;49.462;11.000;2022-08-01T12:04:17;8.10;;;1.15;;
37288;SDS011;23174;49.462;11.000;2022-08-01T12:06:26;3.33;;;1.33;;
37288;SDS011;23174;49.462;11.000;2022-08-01T12:08:31;1.02;;;0.90;;
37288;SDS011;23174;49.462;11.000;2022-08-01T12:10:34;2.75;;;1.40;;
37288;SDS011;23174;49.462;11.000;2022-08-01T12:13:21;0.95;;;0.95;;
37288;SDS011;23174;49.462;11.000;2022-08-01T12:15:05;2.95;;;0.80;;
37288;SDS011;23174;49.462;11.000;2022-08-01T12:17:08;1.00;;;0.90;;
37288;SDS011;23174;49.462;11.000;2022-08-01T12:19:08;1.30;;;1.20;;
37288;SDS011;23174;49.462;11.000;2022-08-01T12:21:10;0.90;;;0.88;;
37288;SDS011;23174;49.462;11.000;2022-08-01T12:23:11;1.52;;;0.95;;
37288;SDS011;23174;49.462;11.000;2022-08-01T12:25:15;0.95;;;0.88;;
37288;SDS011;23174;49.462;11.000;2022-08-01T12:27:29;0.98;;;0.98;;
37288;SDS011;23174;49.462;11.000;2022-08-01T12:29:34;1.08;;;0.98;;
37288;SDS011;23174;49.462;11.000;2022-08-01T12:31:43;1.50;;;1.23;;
37288;SDS011;23174;49.462;11.000;2022-08-01T12:33:44;2.03;;;1.10;;
37288;SDS011;23174;49.462;11.000;2022-08-01T12:35:44;0.80;;;0.80;;
37288;SDS011;23174;49.462;11.000;2022-08-01T12:37:46;1.20;;;0.80;;
37288;SDS011;23174;49.462;11.000;2022-08-01T12:39:48;0.77;;;0.77;;
37288;SDS011;23174;49.462;11.000;2022-08-01T12:41:49;0.93;;;0.93;;
37288;SDS011;23174;49.462;11.000;2022-08-01T12:43:49;0.80;;;0.80;;
37288;SDS011;23174;49.462;11.000;2022-08-01T12:45:50;0.82;;;0.82;;
37288;SDS011;23174;49.462;11.000;2022-08-01T12:47:52;1.38;;;0.90;;
37288;SDS011;23174;49.462;11.000;2022-08-01T12:49:54;1.42;;;0.88;;
37288;SDS011;23174;49.462;11.000;2022-08-01T12:51:54;2.17;;;0.98;;
37288;SDS011;23174;49.462;11.000;2022-08-01T12:53:58;1.80;;;0.82;;
37288;SDS011;23174;49.462;11.000;2022-08-01T12:55:59;1.02;;;0.70;;
37288;SDS011;23174;49.462;11.000;2022-08-01T12:58:06;3.67;;;0.70;;
37288;SDS011;23174;49.462;11.000;2022-08-01T13:00:15;3.85;;;1.10;;
37288;SDS011;23174;49.462;11.000;2022-08-01T13:02:18;0.90;;;0.90;;
37288;SDS011;23174;49.462;11.000;2022-08-01T13:04:19;3.13;;;0.90;;
37288;SDS011;23174;49.462;11.000;2022-08-01T13:06:20;1.17;;;0.80;;
37288;SDS011;23174;49.462;11.000;2022-08-01T13:08:26;0.80;;;0.80;;
37288;SDS011;23174;49.462;11.000;2022-08-01T13:10:30;1.05;;;0.93;;